sensor_id;sensor_type;location;lat;lon;timestamp;pressure;altitude;pressure_sealevel;temperature;humidity
10145;BME280;5113;41.822;23.564;2023-11-21T00:02:50;-11034.69;;;3.63;97.40
10145;BME280;5113;41.822;23.564;2023-11-21T00:05:57;-11015.31;;;2.93;100.00
10145;BME280;5113;41.822;23.564;2023-11-21T00:09:05;-11003.25;;;2.49;100.00
10145;BME280;5113;41.822;23.564;2023-11-21T00:12:15;-11005.50;;;2.57;100.00
10145;BME280;5113;41.822;23.564;2023-11-21T00:15:22;-11005.50;;;2.57;100.00
10145;BME280;5113;41.822;23.564;2023-11-21T00:18:29;-11020.38;;;3.11;100.00
10145;BME280;5113;41.822;23.564;2023-11-21T00:21:35;-11002.97;;;2.48;100.00
10145;BME280;5113;41.822;23.564;2023-11-21T00:24:42;-11022.34;;;3.18;100.00
10145;BME280;5113;41.822;23.564;2023-11-21T00:27:50;-11036.78;;;3.71;100.00
10145;BME280;5113;41.822;23.564;2023-11-21T00:30:56;-11042.81;;;3.92;100.00
10145;BME280;5113;41.822;23.564;2023-11-21T00:34:03;-11038.59;;;3.77;100.00
10145;BME280;5113;41.822;23.564;2023-11-21T00:37:10;-11039.72;;;3.81;99.75
10145;BME280;5113;41.822;23.564;2023-11-21T00:40:16;-11032.44;;;3.55;100.00
10145;BME280;5113;41.822;23.564;2023-11-21T00:43:26;-11027.09;;;3.36;100.00
10145;BME280;5113;41.822;23.564;2023-11-21T00:46:32;-11034.53;;;3.62;99.82
10145;BME280;5113;41.822;23.564;2023-11-21T00:49:39;-11021.78;;;3.16;99.80
10145;BME280;5113;41.822;23.564;2023-11-21T00:52:46;-10999.91;;;2.37;100.00
10145;BME280;5113;41.822;23.564;2023-11-21T00:55:53;-11007.06;;;2.63;100.00
10145;BME280;5113;41.822;23.564;2023-11-21T00:59:03;-11009.16;;;2.71;100.00
10145;BME280;5113;41.822;23.564;2023-11-21T01:02:10;-11024.31;;;3.25;100.00
10145;BME280;5113;41.822;23.564;2023-11-21T01:05:17;-11037.06;;;3.72;99.68
10145;BME280;5113;41.822;23.564;2023-11-21T01:08:25;-11033.28;;;3.58;99.14
10145;BME280;5113;41.822;23.564;2023-11-21T01:11:31;-11030.34;;;3.47;100.00
10145;BME280;5113;41.822;23.564;2023-11-21T01:14:42;-11025.16;;;3.28;100.00
10145;BME280;5113;41.822;23.564;2023-11-21T01:17:50;-11017.56;;;3.01;100.00
10145;BME280;5113;41.822;23.564;2023-11-21T01:20:56;-11030.34;;;3.47;100.00
10145;BME280;5113;41.822;23.564;2023-11-21T01:24:04;-11029.63;;;3.45;100.00
10145;BME280;5113;41.822;23.564;2023-11-21T01:27:12;-11026.28;;;3.33;100.00
10145;BME280;5113;41.822;23.564;2023-11-21T01:30:20;-11028.09;;;3.39;98.36
10145;BME280;5113;41.822;23.564;2023-11-21T01:33:27;-11026.81;;;3.35;97.75
10145;BME280;5113;41.822;23.564;2023-11-21T01:36:33;-11031.03;;;3.50;97.72
10145;BME280;5113;41.822;23.564;2023-11-21T01:39:40;-11028.22;;;3.40;96.50
10145;BME280;5113;41.822;23.564;2023-11-21T01:42:46;-11005.22;;;2.56;100.00
10145;BME280;5113;41.822;23.564;2023-11-21T01:45:55;-11021.22;;;3.14;100.00
10145;BME280;5113;41.822;23.564;2023-11-21T01:49:02;-11010.84;;;2.77;100.00
10145;BME280;5113;41.822;23.564;2023-11-21T01:52:08;-11023.31;;;3.22;100.00
10145;BME280;5113;41.822;23.564;2023-11-21T01:55:17;-11036.94;;;3.71;97.01
10145;BME280;5113;41.822;23.564;2023-11-21T01:58:31;-11012.81;;;2.84;100.00
10145;BME280;5113;41.822;23.564;2023-11-21T02:01:39;-11041.97;;;3.89;96.67
10145;BME280;5113;41.822;23.564;2023-11-21T02:04:46;-11042.97;;;3.93;95.93
10145;BME280;5113;41.822;23.564;2023-11-21T02:07:53;-11039.72;;;3.81;95.67
10145;BME280;5113;41.822;23.564;2023-11-21T02:11:00;-11024.31;;;3.25;96.86
10145;BME280;5113;41.822;23.564;2023-11-21T02:14:07;-11020.09;;;3.10;99.17
10145;BME280;5113;41.822;23.564;2023-11-21T02:17:16;-11009.16;;;2.71;100.00
10145;BME280;5113;41.822;23.564;2023-11-21T02:20:23;-11008.31;;;2.68;100.00
10145;BME280;5113;41.822;23.564;2023-11-21T02:23:33;-11007.47;;;2.64;98.50
10145;BME280;5113;41.822;23.564;2023-11-21T02:26:39;-11014.19;;;2.89;100.00
10145;BME280;5113;41.822;23.564;2023-11-21T02:29:46;-11028.78;;;3.42;98.39
10145;BME280;5113;41.822;23.564;2023-11-21T02:32:53;-11025.16;;;3.28;99.23
10145;BME280;5113;41.822;23.564;2023-11-21T02:36:00;-11013.09;;;2.85;100.00
10145;BME280;5113;41.822;23.564;2023-11-21T02:39:07;-11035.38;;;3.65;100.00
10145;BME280;5113;41.822;23.564;2023-11-21T02:42:14;-11032.16;;;3.54;100.00
10145;BME280;5113;41.822;23.564;2023-11-21T02:45:20;-11025.44;;;3.29;100.00
10145;BME280;5113;41.822;23.564;2023-11-21T02:48:27;-11022.19;;;3.18;100.00
10145;BME280;5113;41.822;23.564;2023-11-21T02:51:33;-11022.62;;;3.19;100.00
10145;BME280;5113;41.822;23.564;2023-11-21T02:54:41;-11031.03;;;3.50;98.49
10145;BME280;5113;41.822;23.564;2023-11-21T02:57:48;-11018.41;;;3.04;100.00
10145;BME280;5113;41.822;23.564;2023-11-21T03:00:54;-11025.28;;;3.29;97.89
10145;BME280;5113;41.822;23.564;2023-11-21T03:04:01;-11004.53;;;2.54;100.00
10145;BME280;5113;41.822;23.564;2023-11-21T03:07:09;-11004.09;;;2.52;100.00
10145;BME280;5113;41.822;23.564;2023-11-21T03:10:17;-11015.31;;;2.93;100.00
10145;BME280;5113;41.822;23.564;2023-11-21T03:13:24;-11021.22;;;3.14;100.00
10145;BME280;5113;41.822;23.564;2023-11-21T03:16:31;-11008.03;;;2.67;100.00
10145;BME280;5113;41.822;23.564;2023-11-21T03:19:38;-11009.16;;;2.71;100.00
10145;BME280;5113;41.822;23.564;2023-11-21T03:22:45;-11018.97;;;3.06;100.00
10145;BME280;5113;41.822;23.564;2023-11-21T03:25:53;-11030.19;;;3.47;98.48
10145;BME280;5113;41.822;23.564;2023-11-21T03:28:59;-11023.47;;;3.22;100.00
10145;BME280;5113;41.822;23.564;2023-11-21T03:32:07;-11012.53;;;2.83;100.00
10145;BME280;5113;41.822;23.564;2023-11-21T03:35:14;-11021.91;;;3.17;100.00
10145;BME280;5113;41.822;23.564;2023-11-21T03:38:20;-11011.81;;;2.80;100.00
10145;BME280;5113;41.822;23.564;2023-11-21T03:41:28;-11016.72;;;2.98;100.00
10145;BME280;5113;41.822;23.564;2023-11-21T03:44:34;-11026.81;;;3.35;99.83
10145;BME280;5113;41.822;23.564;2023-11-21T03:47:42;-11023.19;;;3.21;99.84
10145;BME280;5113;41.822;23.564;2023-11-21T03:50:48;-10999.06;;;2.34;100.00
10145;BME280;5113;41.822;23.564;2023-11-21T03:53:55;-11009.44;;;2.72;100.00
10145;BME280;5113;41.822;23.564;2023-11-21T03:57:03;-11014.75;;;2.91;100.00
10145;BME280;5113;41.822;23.564;2023-11-21T04:00:11;-11002.00;;;2.45;100.00
10145;BME280;5113;41.822;23.564;2023-11-21T04:03:18;-10994.44;;;2.17;100.00
10145;BME280;5113;41.822;23.564;2023-11-21T04:06:25;-11011.53;;;2.79;100.00
10145;BME280;5113;41.822;23.564;2023-11-21T04:09:31;-11024.16;;;3.25;98.21
10145;BME280;5113;41.822;23.564;2023-11-21T04:12:39;-11025.72;;;3.30;97.44
10145;BME280;5113;41.822;23.564;2023-11-21T04:15:45;-11029.06;;;3.43;96.55
10145;BME280;5113;41.822;23.564;2023-11-21T04:18:52;-11019.81;;;3.09;98.47
10145;BME280;5113;41.822;23.564;2023-11-21T04:21:58;-11019.25;;;3.07;99.19
10145;BME280;5113;41.822;23.564;2023-11-21T04:25:05;-11005.66;;;2.58;99.99
10145;BME280;5113;41.822;23.564;2023-11-21T04:28:13;-11008.88;;;2.70;98.64
10145;BME280;5113;41.822;23.564;2023-11-21T04:31:20;-10984.47;;;1.81;100.00
10145;BME280;5113;41.822;23.564;2023-11-21T04:34:26;-10998.09;;;2.30;100.00
10145;BME280;5113;41.822;23.564;2023-11-21T04:37:35;-11006.63;;;2.61;97.54
10145;BME280;5113;41.822;23.564;2023-11-21T04:40:41;-10983.91;;;1.79;100.00
10145;BME280;5113;41.822;23.564;2023-11-21T04:43:49;-10988.97;;;1.97;100.00
10145;BME280;5113;41.822;23.564;2023-11-21T04:46:55;-10994.84;;;2.19;100.00
10145;BME280;5113;41.822;23.564;2023-11-21T04:50:03;-10984.91;;;1.83;100.00
10145;BME280;5113;41.822;23.564;2023-11-21T04:53:09;-10990.09;;;2.02;100.00
10145;BME280;5113;41.822;23.564;2023-11-21T04:56:17;-10997.81;;;2.29;100.00
10145;BME280;5113;41.822;23.564;2023-11-21T04:59:25;-11011.81;;;2.80;100.00
10145;BME280;5113;41.822;23.564;2023-11-21T05:02:32;-11018.41;;;3.04;100.00
10145;BME280;5113;41.822;23.564;2023-11-21T05:05:40;-11017.72;;;3.02;100.00
10145;BME280;5113;41.822;23.564;2023-11-21T05:08:46;-11025.00;;;3.28;100.00
10145;BME280;5113;41.822;23.564;2023-11-21T05:11:53;-11025.16;;;3.28;100.00
10145;BME280;5113;41.822;23.564;2023-11-21T05:15:01;-11021.50;;;3.15;100.00
10145;BME280;5113;41.822;23.564;2023-11-21T05:18:12;-11033.00;;;3.57;98.67
10145;BME280;5113;41.822;23.564;2023-11-21T05:21:19;-11020.78;;;3.13;100.00
10145;BME280;5113;41.822;23.564;2023-11-21T05:24:26;-11019.81;;;3.09;100.00
10145;BME280;5113;41.822;23.564;2023-11-21T05:27:33;-11006.22;;;2.60;100.00
10145;BME280;5113;41.822;23.564;2023-11-21T05:30:41;-11015.31;;;2.93;100.00
10145;BME280;5113;41.822;23.564;2023-11-21T05:33:48;-11006.06;;;2.59;100.00
10145;BME280;5113;41.822;23.564;2023-11-21T05:36:54;-11016.31;;;2.96;100.00
10145;BME280;5113;41.822;23.564;2023-11-21T05:40:04;-11022.06;;;3.17;100.00
10145;BME280;5113;41.822;23.564;2023-11-21T05:43:11;-11016.16;;;2.96;100.00
10145;BME280;5113;41.822;23.564;2023-11-21T05:46:19;-11024.03;;;3.24;98.91
10145;BME280;5113;41.822;23.564;2023-11-21T05:49:26;-11009.28;;;2.71;100.00
10145;BME280;5113;41.822;23.564;2023-11-21T05:52:34;-11008.75;;;2.69;100.00
10145;BME280;5113;41.822;23.564;2023-11-21T05:55:40;-11034.81;;;3.63;98.65
10145;BME280;5113;41.822;23.564;2023-11-21T05:58:47;-11028.66;;;3.41;100.00
10145;BME280;5113;41.822;23.564;2023-11-21T06:01:55;-11047.88;;;4.11;95.25
10145;BME280;5113;41.822;23.564;2023-11-21T06:05:01;-11051.78;;;4.25;93.39
10145;BME280;5113;41.822;23.564;2023-11-21T06:08:09;-11052.34;;;4.27;92.75
10145;BME280;5113;41.822;23.564;2023-11-21T06:11:15;-11030.91;;;3.49;99.91
10145;BME280;5113;41.822;23.564;2023-11-21T06:14:22;-11025.84;;;3.31;100.00
10145;BME280;5113;41.822;23.564;2023-11-21T06:17:29;-11035.66;;;3.67;99.24
10145;BME280;5113;41.822;23.564;2023-11-21T06:20:36;-11025.84;;;3.31;97.89
10145;BME280;5113;41.822;23.564;2023-11-21T06:23:43;-11025.56;;;3.30;99.91
10145;BME280;5113;41.822;23.564;2023-11-21T06:26:50;-11020.38;;;3.11;100.00
10145;BME280;5113;41.822;23.564;2023-11-21T06:29:56;-11028.94;;;3.42;100.00
10145;BME280;5113;41.822;23.564;2023-11-21T06:33:05;-11044.78;;;4.00;98.48
10145;BME280;5113;41.822;23.564;2023-11-21T06:36:11;-11025.44;;;3.29;100.00
10145;BME280;5113;41.822;23.564;2023-11-21T06:39:18;-11009.00;;;2.70;100.00
10145;BME280;5113;41.822;23.564;2023-11-21T06:42:27;-11015.59;;;2.94;100.00
10145;BME280;5113;41.822;23.564;2023-11-21T06:45:35;-11036.09;;;3.68;100.00
10145;BME280;5113;41.822;23.564;2023-11-21T06:48:43;-11052.91;;;4.29;99.31
10145;BME280;5113;41.822;23.564;2023-11-21T06:51:50;-11055.16;;;4.37;97.50
10145;BME280;5113;41.822;23.564;2023-11-21T06:54:58;-11056.00;;;4.40;99.73
10145;BME280;5113;41.822;23.564;2023-11-21T06:58:04;-11066.94;;;4.80;97.39
10145;BME280;5113;41.822;23.564;2023-11-21T07:01:11;-11059.09;;;4.51;99.84
10145;BME280;5113;41.822;23.564;2023-11-21T07:04:19;-11059.94;;;4.54;100.00
10145;BME280;5113;41.822;23.564;2023-11-21T07:07:26;-11056.56;;;4.42;100.00
10145;BME280;5113;41.822;23.564;2023-11-21T07:10:33;-11067.66;;;4.82;99.33
10145;BME280;5113;41.822;23.564;2023-11-21T07:13:40;-11060.91;;;4.58;100.00
10145;BME280;5113;41.822;23.564;2023-11-21T07:16:47;-11062.47;;;4.63;100.00
10145;BME280;5113;41.822;23.564;2023-11-21T07:19:54;-11069.75;;;4.90;99.22
10145;BME280;5113;41.822;23.564;2023-11-21T07:23:01;-11070.75;;;4.93;100.00
10145;BME280;5113;41.822;23.564;2023-11-21T07:26:08;-11075.94;;;5.12;98.13
10145;BME280;5113;41.822;23.564;2023-11-21T07:29:15;-11076.22;;;5.13;98.07
10145;BME280;5113;41.822;23.564;2023-11-21T07:32:22;-11082.41;;;5.36;96.80
10145;BME280;5113;41.822;23.564;2023-11-21T07:35:30;-11082.13;;;5.35;96.73
10145;BME280;5113;41.822;23.564;2023-11-21T07:38:36;-11069.47;;;4.89;98.54
10145;BME280;5113;41.822;23.564;2023-11-21T07:41:42;-11062.19;;;4.62;100.00
10145;BME280;5113;41.822;23.564;2023-11-21T07:44:54;-11060.06;;;4.55;100.00
10145;BME280;5113;41.822;23.564;2023-11-21T07:48:01;-11077.91;;;5.19;100.00
10145;BME280;5113;41.822;23.564;2023-11-21T07:51:11;-11088.28;;;5.57;100.00
10145;BME280;5113;41.822;23.564;2023-11-21T07:54:19;-11090.53;;;5.65;97.22
10145;BME280;5113;41.822;23.564;2023-11-21T07:57:26;-11107.13;;;6.25;93.36
10145;BME280;5113;41.822;23.564;2023-11-21T08:00:33;-11072.16;;;4.98;100.00
10145;BME280;5113;41.822;23.564;2023-11-21T08:03:40;-11103.03;;;6.10;94.92
10145;BME280;5113;41.822;23.564;2023-11-21T08:06:48;-11114.97;;;6.53;92.90
10145;BME280;5113;41.822;23.564;2023-11-21T08:09:54;-11114.97;;;6.53;92.81
10145;BME280;5113;41.822;23.564;2023-11-21T08:13:01;-11120.59;;;6.74;90.65
10145;BME280;5113;41.822;23.564;2023-11-21T08:16:08;-11106.84;;;6.24;94.68
10145;BME280;5113;41.822;23.564;2023-11-21T08:19:16;-11120.03;;;6.72;91.89
10145;BME280;5113;41.822;23.564;2023-11-21T08:22:24;-11113.00;;;6.46;94.80
10145;BME280;5113;41.822;23.564;2023-11-21T08:25:31;-11125.94;;;6.93;93.51
10145;BME280;5113;41.822;23.564;2023-11-21T08:28:40;-11112.44;;;6.44;95.01
10145;BME280;5113;41.822;23.564;2023-11-21T08:31:47;-11130.69;;;7.10;91.48
10145;BME280;5113;41.822;23.564;2023-11-21T08:34:53;-11134.91;;;7.25;91.35
10145;BME280;5113;41.822;23.564;2023-11-21T08:38:02;-11147.28;;;7.70;89.97
10145;BME280;5113;41.822;23.564;2023-11-21T08:41:09;-11138.56;;;7.39;91.10
10145;BME280;5113;41.822;23.564;2023-11-21T08:44:16;-11141.94;;;7.51;93.74
10145;BME280;5113;41.822;23.564;2023-11-21T08:47:23;-11140.53;;;7.46;92.19
10145;BME280;5113;41.822;23.564;2023-11-21T08:50:31;-11128.75;;;7.03;96.69
10145;BME280;5113;41.822;23.564;2023-11-21T08:53:40;-11148.81;;;7.76;93.91
10145;BME280;5113;41.822;23.564;2023-11-21T08:56:46;-11154.88;;;7.98;94.94
10145;BME280;5113;41.822;23.564;2023-11-21T08:59:53;-11159.66;;;8.15;93.61
10145;BME280;5113;41.822;23.564;2023-11-21T09:03:01;-11165.13;;;8.35;90.91
10145;BME280;5113;41.822;23.564;2023-11-21T09:06:09;-11178.34;;;8.82;89.47
10145;BME280;5113;41.822;23.564;2023-11-21T09:09:17;-11168.37;;;8.46;89.60
10145;BME280;5113;41.822;23.564;2023-11-21T09:12:26;-11180.44;;;8.90;87.70
10145;BME280;5113;41.822;23.564;2023-11-21T09:15:32;-11187.75;;;9.16;84.68
10145;BME280;5113;41.822;23.564;2023-11-21T09:18:39;-11210.41;;;9.98;79.70
10145;BME280;5113;41.822;23.564;2023-11-21T09:21:45;-11204.91;;;9.78;80.03
10145;BME280;5113;41.822;23.564;2023-11-21T09:24:53;-11208.00;;;9.89;77.79
10145;BME280;5113;41.822;23.564;2023-11-21T09:28:01;-11208.00;;;9.89;76.05
10145;BME280;5113;41.822;23.564;2023-11-21T09:31:10;-11210.25;;;9.98;76.46
10145;BME280;5113;41.822;23.564;2023-11-21T09:34:16;-11211.66;;;10.03;75.35
10145;BME280;5113;41.822;23.564;2023-11-21T09:37:23;-11211.09;;;10.01;74.31
10145;BME280;5113;41.822;23.564;2023-11-21T09:40:34;-11239.50;;;11.03;71.16
10145;BME280;5113;41.822;23.564;2023-11-21T09:43:40;-11220.66;;;10.35;71.78
10145;BME280;5113;41.822;23.564;2023-11-21T09:46:48;-11219.41;;;10.31;74.26
10145;BME280;5113;41.822;23.564;2023-11-21T09:49:56;-11228.97;;;10.65;72.92
10145;BME280;5113;41.822;23.564;2023-11-21T09:53:13;-11240.78;;;11.08;72.39
10145;BME280;5113;41.822;23.564;2023-11-21T09:56:22;-11237.56;;;10.96;72.17
10145;BME280;5113;41.822;23.564;2023-11-21T09:59:32;-11252.19;;;11.49;70.79
10145;BME280;5113;41.822;23.564;2023-11-21T10:02:39;-11251.47;;;11.46;70.12
10145;BME280;5113;41.822;23.564;2023-11-21T10:05:49;-11250.78;;;11.44;70.59
10145;BME280;5113;41.822;23.564;2023-11-21T10:08:59;-11244.31;;;11.20;71.25
10145;BME280;5113;41.822;23.564;2023-11-21T10:12:09;-11254.56;;;11.57;70.48
10145;BME280;5113;41.822;23.564;2023-11-21T10:15:16;-11284.56;;;12.66;67.01
10145;BME280;5113;41.822;23.564;2023-11-21T10:18:24;-11290.19;;;12.86;65.37
10145;BME280;5113;41.822;23.564;2023-11-21T10:21:32;-11278.22;;;12.43;65.38
10145;BME280;5113;41.822;23.564;2023-11-21T10:24:39;-11297.91;;;13.14;64.56
10145;BME280;5113;41.822;23.564;2023-11-21T10:28:01;-11294.97;;;13.03;63.98
10145;BME280;5113;41.822;23.564;2023-11-21T10:31:11;-11271.03;;;12.17;66.88
10145;BME280;5113;41.822;23.564;2023-11-21T10:34:19;-11252.59;;;11.50;69.55
10145;BME280;5113;41.822;23.564;2023-11-21T10:37:26;-11267.81;;;12.05;67.32
10145;BME280;5113;41.822;23.564;2023-11-21T10:40:33;-11285.69;;;12.70;65.79
10145;BME280;5113;41.822;23.564;2023-11-21T10:43:41;-11282.16;;;12.57;65.37
10145;BME280;5113;41.822;23.564;2023-11-21T10:46:49;-11266.97;;;12.02;66.35
10145;BME280;5113;41.822;23.564;2023-11-21T10:49:57;-11284.56;;;12.66;64.74
10145;BME280;5113;41.822;23.564;2023-11-21T10:53:04;-11296.66;;;13.09;63.66
10145;BME280;5113;41.822;23.564;2023-11-21T10:56:13;-11309.47;;;13.55;63.58
10145;BME280;5113;41.822;23.564;2023-11-21T10:59:25;-11297.91;;;13.14;62.85
10145;BME280;5113;41.822;23.564;2023-11-21T11:02:34;-11318.75;;;13.89;61.68
10145;BME280;5113;41.822;23.564;2023-11-21T11:05:43;-11318.91;;;13.89;60.23
10145;BME280;5113;41.822;23.564;2023-11-21T11:08:58;-11314.41;;;13.73;61.12
10145;BME280;5113;41.822;23.564;2023-11-21T11:12:05;-11289.63;;;12.84;62.48
10145;BME280;5113;41.822;23.564;2023-11-21T11:15:14;-11277.38;;;12.40;65.08
10145;BME280;5113;41.822;23.564;2023-11-21T11:18:21;-11281.59;;;12.55;64.89
10145;BME280;5113;41.822;23.564;2023-11-21T11:21:37;-11282.56;;;12.59;64.09
10145;BME280;5113;41.822;23.564;2023-11-21T11:25:03;-11284.28;;;12.65;65.26
10145;BME280;5113;41.822;23.564;2023-11-21T11:28:21;-11268.94;;;12.09;65.72
10145;BME280;5113;41.822;23.564;2023-11-21T11:31:38;-11292.84;;;12.96;64.87
10145;BME280;5113;41.822;23.564;2023-11-21T11:34:56;-11276.38;;;12.36;64.61
10145;BME280;5113;41.822;23.564;2023-11-21T11:38:06;-11277.78;;;12.41;63.84
10145;BME280;5113;41.822;23.564;2023-11-21T11:41:13;-11286.50;;;12.73;63.39
10145;BME280;5113;41.822;23.564;2023-11-21T11:44:48;-11302.44;;;13.30;62.23
10145;BME280;5113;41.822;23.564;2023-11-21T11:48:00;-11303.84;;;13.35;61.63
10145;BME280;5113;41.822;23.564;2023-11-21T11:51:10;-11294.97;;;13.03;62.39
10145;BME280;5113;41.822;23.564;2023-11-21T11:54:34;-11299.47;;;13.19;61.59
10145;BME280;5113;41.822;23.564;2023-11-21T11:57:41;-11293.97;;;13.00;62.95
10145;BME280;5113;41.822;23.564;2023-11-21T12:00:50;-11301.72;;;13.28;62.47
10145;BME280;5113;41.822;23.564;2023-11-21T12:04:24;-11289.34;;;12.83;63.22
10145;BME280;5113;41.822;23.564;2023-11-21T12:07:43;-11301.44;;;13.27;60.22
10145;BME280;5113;41.822;23.564;2023-11-21T12:10:51;-11318.06;;;13.86;59.43
10145;BME280;5113;41.822;23.564;2023-11-21T12:13:59;-11338.63;;;14.61;57.93
10145;BME280;5113;41.822;23.564;2023-11-21T12:17:06;-11303.69;;;13.35;57.80
10145;BME280;5113;41.822;23.564;2023-11-21T12:20:21;-11324.66;;;14.10;57.17
10145;BME280;5113;41.822;23.564;2023-11-21T12:23:29;-11303.13;;;13.33;58.74
10145;BME280;5113;41.822;23.564;2023-11-21T12:26:36;-11333.41;;;14.42;57.19
10145;BME280;5113;41.822;23.564;2023-11-21T12:29:43;-11336.22;;;14.52;56.95
10145;BME280;5113;41.822;23.564;2023-11-21T12:32:51;-11315.53;;;13.77;57.69
10145;BME280;5113;41.822;23.564;2023-11-21T12:35:59;-11327.22;;;14.19;57.30
10145;BME280;5113;41.822;23.564;2023-11-21T12:39:06;-11296.66;;;13.09;59.44
10145;BME280;5113;41.822;23.564;2023-11-21T12:42:14;-11332.97;;;14.40;57.24
10145;BME280;5113;41.822;23.564;2023-11-21T12:45:22;-11306.22;;;13.44;58.44
10145;BME280;5113;41.822;23.564;2023-11-21T12:48:32;-11310.72;;;13.60;57.65
10145;BME280;5113;41.822;23.564;2023-11-21T12:51:40;-11293.28;;;12.97;58.67
10145;BME280;5113;41.822;23.564;2023-11-21T12:54:46;-11302.00;;;13.29;58.48
10145;BME280;5113;41.822;23.564;2023-11-21T12:57:55;-11301.59;;;13.27;58.71
10145;BME280;5113;41.822;23.564;2023-11-21T13:01:02;-11309.59;;;13.56;58.16
10145;BME280;5113;41.822;23.564;2023-11-21T13:04:10;-11306.94;;;13.46;58.15
10145;BME280;5113;41.822;23.564;2023-11-21T13:07:19;-11305.94;;;13.43;58.52
10145;BME280;5113;41.822;23.564;2023-11-21T13:10:27;-11299.91;;;13.21;58.78
10145;BME280;5113;41.822;23.564;2023-11-21T13:13:36;-11306.66;;;13.45;58.56
10145;BME280;5113;41.822;23.564;2023-11-21T13:16:44;-11297.78;;;13.13;58.66
10145;BME280;5113;41.822;23.564;2023-11-21T13:19:51;-11307.06;;;13.47;57.95
10145;BME280;5113;41.822;23.564;2023-11-21T13:23:07;-11306.78;;;13.46;58.14
10145;BME280;5113;41.822;23.564;2023-11-21T13:26:14;-11302.44;;;13.30;58.20
10145;BME280;5113;41.822;23.564;2023-11-21T13:29:21;-11302.28;;;13.30;58.66
10145;BME280;5113;41.822;23.564;2023-11-21T13:32:27;-11291.31;;;12.90;59.02
10145;BME280;5113;41.822;23.564;2023-11-21T13:35:35;-11288.19;;;12.79;59.86
10145;BME280;5113;41.822;23.564;2023-11-21T13:38:49;-11297.50;;;13.12;59.20
10145;BME280;5113;41.822;23.564;2023-11-21T13:41:55;-11304.25;;;13.37;59.11
10145;BME280;5113;41.822;23.564;2023-11-21T13:45:03;-11299.34;;;13.19;59.44
10145;BME280;5113;41.822;23.564;2023-11-21T13:48:11;-11301.72;;;13.28;59.21
10145;BME280;5113;41.822;23.564;2023-11-21T13:51:19;-11302.56;;;13.31;58.31
10145;BME280;5113;41.822;23.564;2023-11-21T13:54:35;-11286.22;;;12.72;59.69
10145;BME280;5113;41.822;23.564;2023-11-21T13:57:43;-11297.22;;;13.11;58.92
10145;BME280;5113;41.822;23.564;2023-11-21T14:00:51;-11274.12;;;12.28;60.65
10145;BME280;5113;41.822;23.564;2023-11-21T14:04:03;-11291.44;;;12.90;60.17
10145;BME280;5113;41.822;23.564;2023-11-21T14:07:24;-11289.91;;;12.85;61.07
10145;BME280;5113;41.822;23.564;2023-11-21T14:10:42;-11295.94;;;13.07;60.08
10145;BME280;5113;41.822;23.564;2023-11-21T14:13:49;-11281.72;;;12.55;60.97
10145;BME280;5113;41.822;23.564;2023-11-21T14:16:56;-11289.63;;;12.84;61.22
10145;BME280;5113;41.822;23.564;2023-11-21T14:20:05;-11301.44;;;13.27;60.48
10145;BME280;5113;41.822;23.564;2023-11-21T14:23:19;-11302.56;;;13.31;60.75
10145;BME280;5113;41.822;23.564;2023-11-21T14:26:29;-11295.66;;;13.06;60.43
10145;BME280;5113;41.822;23.564;2023-11-21T14:29:36;-11289.75;;;12.84;60.96
10145;BME280;5113;41.822;23.564;2023-11-21T14:32:48;-11275.69;;;12.34;62.45
10145;BME280;5113;41.822;23.564;2023-11-21T14:35:55;-11287.50;;;12.76;61.81
10145;BME280;5113;41.822;23.564;2023-11-21T14:39:04;-11281.16;;;12.53;62.62
10145;BME280;5113;41.822;23.564;2023-11-21T14:42:15;-11282.72;;;12.59;63.40
10145;BME280;5113;41.822;23.564;2023-11-21T14:45:26;-11272.44;;;12.22;65.50
10145;BME280;5113;41.822;23.564;2023-11-21T14:48:35;-11282.44;;;12.58;64.62
10145;BME280;5113;41.822;23.564;2023-11-21T14:51:48;-11271.59;;;12.19;65.81
10145;BME280;5113;41.822;23.564;2023-11-21T14:55:06;-11256.41;;;11.64;69.35
10145;BME280;5113;41.822;23.564;2023-11-21T14:58:38;-11260.63;;;11.79;69.59
10145;BME280;5113;41.822;23.564;2023-11-21T15:01:45;-11256.41;;;11.64;71.51
10145;BME280;5113;41.822;23.564;2023-11-21T15:04:58;-11260.63;;;11.79;72.19
10145;BME280;5113;41.822;23.564;2023-11-21T15:08:07;-11246.84;;;11.30;77.26
10145;BME280;5113;41.822;23.564;2023-11-21T15:11:27;-11263.88;;;11.91;73.56
10145;BME280;5113;41.822;23.564;2023-11-21T15:14:38;-11251.63;;;11.47;75.05
10145;BME280;5113;41.822;23.564;2023-11-21T15:17:44;-11254.00;;;11.55;75.09
10145;BME280;5113;41.822;23.564;2023-11-21T15:20:51;-11252.47;;;11.50;75.98
10145;BME280;5113;41.822;23.564;2023-11-21T15:23:57;-11234.59;;;10.85;82.84
10145;BME280;5113;41.822;23.564;2023-11-21T15:27:04;-11231.06;;;10.73;88.73
10145;BME280;5113;41.822;23.564;2023-11-21T15:30:14;-11242.03;;;11.12;84.76
10145;BME280;5113;41.822;23.564;2023-11-21T15:33:20;-11237.56;;;10.96;83.74
10145;BME280;5113;41.822;23.564;2023-11-21T15:36:27;-11253.16;;;11.52;83.18
10145;BME280;5113;41.822;23.564;2023-11-21T15:39:33;-11251.06;;;11.45;80.95
10145;BME280;5113;41.822;23.564;2023-11-21T15:42:40;-11245.72;;;11.25;83.50
10145;BME280;5113;41.822;23.564;2023-11-21T15:45:47;-11242.88;;;11.15;84.05
10145;BME280;5113;41.822;23.564;2023-11-21T15:48:54;-11240.34;;;11.06;84.97
10145;BME280;5113;41.822;23.564;2023-11-21T15:52:00;-11240.34;;;11.06;84.99
10145;BME280;5113;41.822;23.564;2023-11-21T15:55:08;-11225.88;;;10.54;88.81
10145;BME280;5113;41.822;23.564;2023-11-21T15:58:14;-11219.97;;;10.33;89.51
10145;BME280;5113;41.822;23.564;2023-11-21T16:01:22;-11213.91;;;10.11;93.16
10145;BME280;5113;41.822;23.564;2023-11-21T16:04:31;-11217.84;;;10.25;91.98
10145;BME280;5113;41.822;23.564;2023-11-21T16:07:37;-11215.03;;;10.15;92.83
10145;BME280;5113;41.822;23.564;2023-11-21T16:10:44;-11224.88;;;10.50;90.53
10145;BME280;5113;41.822;23.564;2023-11-21T16:13:51;-11218.13;;;10.26;89.76
10145;BME280;5113;41.822;23.564;2023-11-21T16:16:59;-11215.31;;;10.16;89.86
10145;BME280;5113;41.822;23.564;2023-11-21T16:20:06;-11217.56;;;10.24;90.22
10145;BME280;5113;41.822;23.564;2023-11-21T16:23:15;-11220.09;;;10.33;88.93
10145;BME280;5113;41.822;23.564;2023-11-21T16:26:22;-11217.28;;;10.23;89.18
10145;BME280;5113;41.822;23.564;2023-11-21T16:29:28;-11220.53;;;10.35;89.50